^^
Datos históricos de la estación: Murcia-Puente Tocinos
Diario Informe para Noviembre 2, 2019 Unidades:  Ingés    Métrico   Ambas
Diario Semanal Mensual Anual
  Máxima: Mínima: Promedio:
Temperatura: 81 °F 64.2 °F 72.1 °F
Punto de rocio: 58.8 °F 47.7 °F 53.8 °F
Humedad: 72% 32% 54%
Velocidad viento: 13.5mph 0mph 5.5mph
Racha viento: 26.5mph - -
Viento- - SO
Presión: 29.9 in 29.7 in -
Precipitación: 0 in    
 
 
Tabla de datos para Noviembre 2, 2019
Hora Temperatura Punto de rocio Presión Viento Velocidad viento Racha viento Humedad Intensidad lluvia(por hora) Nubes
00:04 71.1 °F 58.8 °F 29.9 in SO 3.7 mph 8.1 mph 65.4% 0 in
00:09 70.9 °F 58.5 °F 29.9 in SO 3.6 mph 8 mph 65% 0 in
00:14 70.9 °F 58.5 °F 29.9 in SO 4.4 mph 8.1 mph 65% 0 in
00:19 70.5 °F 58.6 °F 29.9 in SO 4.7 mph 6 mph 65.9% 0 in
00:24 70.3 °F 58.5 °F 29.9 in SO 4.2 mph 6 mph 66% 0 in
00:29 70.2 °F 58.5 °F 29.9 in SO 4 mph 6 mph 66.3% 0 in
00:34 70.2 °F 58.6 °F 29.9 in SSO 4 mph 6.2 mph 66.9% 0 in
00:39 70.2 °F 58.6 °F 29.9 in SSO 4 mph 6.9 mph 67% 0 in
00:44 70 °F 58.5 °F 29.9 in SSO 4 mph 8.5 mph 67% 0 in
00:49 70 °F 58.5 °F 29.9 in SO 4 mph 9 mph 66.9% 0 in
00:54 70 °F 58.1 °F 29.9 in OSO 5 mph 9 mph 66% 0 in
00:59 70 °F 58.1 °F 29.9 in Oeste 5.2 mph 7 mph 66% 0 in
01:04 70 °F 58.1 °F 29.9 in Oeste 3.9 mph 6 mph 66.1% 0 in
01:09 69.8 °F 58.3 °F 29.9 in OSO 3.6 mph 5 mph 66.9% 0 in
01:14 69.6 °F 58.1 °F 29.9 in Oeste 3 mph 5 mph 67% 0 in
01:19 69.4 °F 57.9 °F 29.9 in Oeste 2.9 mph 5.2 mph 67% 0 in
01:24 69.3 °F 58.3 °F 29.9 in Oeste 2.9 mph 5 mph 68% 0 in
01:29 69.1 °F 58.1 °F 29.9 in SO 2.9 mph 5 mph 68% 0 in
01:34 68.9 °F 58.3 °F 29.9 in SO 2.5 mph 5.2 mph 68.6% 0 in
01:39 68.7 °F 58.1 °F 29.9 in SSO 2.4 mph 5 mph 69% 0 in
01:44 68.7 °F 57.9 °F 29.9 in Sur 2.8 mph 5.2 mph 68.2% 0 in
01:49 68.9 °F 57.9 °F 29.9 in Sur 2.9 mph 5 mph 68% 0 in
01:54 68.9 °F 58.1 °F 29.9 in SSE 2.9 mph 5 mph 68.3% 0 in
01:59 68.5 °F 58.1 °F 29.9 in SE 2.9 mph 6.2 mph 69.1% 0 in
02:04 68.2 °F 57.9 °F 29.9 in SE 3.5 mph 6 mph 69.9% 0 in
02:09 67.6 °F 57.9 °F 29.9 in SE 3.6 mph 6.2 mph 70.9% 0 in
02:14 67.5 °F 58.1 °F 29.9 in SE 3.6 mph 6 mph 71.8% 0 in
02:19 67.5 °F 58.1 °F 29.9 in SE 3.6 mph 5.9 mph 72% 0 in
02:24 67.5 °F 57.7 °F 29.9 in Sur 3.6 mph 8.1 mph 71.1% 0 in
02:29 67.6 °F 57.6 °F 29.9 in Sur 3.6 mph 8 mph 70.3% 0 in
02:34 67.8 °F 57.6 °F 29.9 in Sur 3.2 mph 5 mph 69.7% 0 in
02:39 68.2 °F 57.6 °F 29.9 in Sur 3.1 mph 3.6 mph 69% 0 in
02:44 68.2 °F 57.7 °F 29.9 in SSE 2.1 mph 4.3 mph 69% 0 in
02:49 68.4 °F 57.7 °F 29.9 in SE 1.8 mph 6.2 mph 68.7% 0 in
02:54 68.4 °F 57.4 °F 29.9 in SE 2.8 mph 7.4 mph 68% 0 in
02:59 68.5 °F 57 °F 29.9 in SE 3.1 mph 7 mph 67.1% 0 in
03:04 68.5 °F 57 °F 29.9 in SE 4.1 mph 7 mph 67% 0 in
03:09 68.4 °F 57 °F 29.9 in SE 4.3 mph 6.9 mph 67.3% 0 in
03:14 68 °F 57 °F 29.9 in SE 4.1 mph 7 mph 68% 0 in
03:19 67.8 °F 56.8 °F 29.9 in Sur 4 mph 6 mph 68% 0 in
03:24 67.6 °F 57.2 °F 29.9 in Oeste 2.7 mph 5 mph 69% 0 in
03:29 67.6 °F 56.8 °F 29.9 in SO 2.4 mph 4.7 mph 68.5% 0 in
03:34 67.8 °F 56.8 °F 29.9 in SO 2.8 mph 5.2 mph 68% 0 in
03:39 68.2 °F 57 °F 29.9 in SSO 2.9 mph 5.4 mph 67.5% 0 in
03:44 68.2 °F 56.8 °F 29.9 in SSO 3.7 mph 6.2 mph 67% 0 in
03:49 68.2 °F 56.8 °F 29.9 in SO 4 mph 6 mph 67% 0 in
03:54 68.2 °F 56.8 °F 29.9 in SO 4.2 mph 6.9 mph 67% 0 in
03:59 68 °F 56.3 °F 29.9 in SO 4.3 mph 7.4 mph 66.1% 0 in
04:04 68.2 °F 56.3 °F 29.9 in SO 4.7 mph 7 mph 66% 0 in
04:09 68.2 °F 56.1 °F 29.9 in SO 4.7 mph 8.1 mph 65.2% 0 in
04:14 68.2 °F 55.9 °F 29.9 in Oeste 4.4 mph 8 mph 65% 0 in
04:19 68.2 °F 55.9 °F 29.9 in OSO 4.3 mph 6 mph 65.1% 0 in
04:24 68 °F 55.9 °F 29.9 in SO 2.9 mph 5 mph 65.4% 0 in
04:29 67.8 °F 55.9 °F 29.9 in Oeste 2.4 mph 5 mph 66% 0 in
04:34 67.6 °F 55.9 °F 29.9 in Oeste 1.9 mph 3 mph 66.3% 0 in
04:39 67.5 °F 56.1 °F 29.9 in Oeste 1.8 mph 2.4 mph 67% 0 in
04:44 67.3 °F 55.9 °F 29.9 in Oeste 0.4 mph 3.5 mph 67% 0 in
04:49 67.3 °F 56.1 °F 29.9 in Calm   3 mph 67.3% 0 in
04:54 67.3 °F 55.9 °F 29.9 in Sur 1.4 mph 5.9 mph 67% 0 in
04:59 67.5 °F 55.6 °F 29.9 in SSO 1.8 mph 6.2 mph 65.8% 0 in
05:04 67.6 °F 55.2 °F 29.9 in Sur 3.6 mph 6 mph 64.4% 0 in
05:09 67.8 °F 55 °F 29.9 in SO 4 mph 6.2 mph 63.5% 0 in
05:14 68 °F 55 °F 29.9 in SO 3.7 mph 6 mph 63.2% 0 in
05:19 67.8 °F 55 °F 29.9 in SSO 3.6 mph 5.9 mph 63.4% 0 in
05:24 67.8 °F 54.9 °F 29.9 in SO 3 mph 6.9 mph 62.9% 0 in
05:29 68 °F 54.5 °F 29.9 in SSO 2.9 mph 9.2 mph 62% 0 in
05:34 68.2 °F 54.7 °F 29.9 in SSO 4.8 mph 9.2 mph 62% 0 in
05:39 68.2 °F 54.3 °F 29.9 in SSO 5.4 mph 10.4 mph 61.1% 0 in
05:44 68.4 °F 54.1 °F 29.9 in SSO 5.4 mph 10 mph 60.3% 0 in
05:49 68.5 °F 54.1 °F 29.9 in SO 5.4 mph 9 mph 60% 0 in
05:54 68.5 °F 54.3 °F 29.9 in OSO 5.3 mph 8 mph 60.4% 0 in
05:59 68.2 °F 54.9 °F 29.9 in NO 5.2 mph 6 mph 62.8% 0 in
06:04 67.1 °F 54.9 °F 29.9 in ONO 3 mph 5 mph 65% 0 in
06:09 66.6 °F 54.9 °F 29.9 in Oeste 2.4 mph 5 mph 66.4% 0 in
06:14 66 °F 54.9 °F 29.9 in OSO 2.4 mph 5.4 mph 67.1% 0 in
06:19 65.8 °F 54.7 °F 29.9 in SSE 2.4 mph 6 mph 67.4% 0 in
06:24 65.7 °F 55 °F 29.9 in ESE 2.9 mph 6.2 mph 68.7% 0 in
06:29 64.9 °F 54.7 °F 29.9 in ESE 3.1 mph 6 mph 69.3% 0 in
06:34 64.6 °F 54.7 °F 29.9 in Este 2.5 mph 5 mph 70.3% 0 in
06:39 64.4 °F 54.9 °F 29.9 in ENE 2.4 mph 5 mph 71% 0 in
06:44 64.2 °F 54.7 °F 29.9 in NE 2.4 mph 3.5 mph 71% 0 in
06:49 64.4 °F 54.9 °F 29.9 in NO 2.4 mph 4.6 mph 70.8% 0 in
06:54 64.8 °F 54.7 °F 29.9 in OSO 2.1 mph 6.2 mph 70% 0 in
06:59 65.1 °F 54.7 °F 29.9 in SO 2 mph 9.7 mph 69% 0 in
07:04 66.2 °F 54.5 °F 29.9 in SO 3.9 mph 10.7 mph 66.1% 0 in
07:09 67.3 °F 54.5 °F 29.9 in SO 4.3 mph 11 mph 63.4% 0 in
07:14 67.6 °F 54.5 °F 29.9 in North 5.2 mph 10 mph 62.8% 0 in
07:19 67.3 °F 54.7 °F 29.9 in SSO 5.4 mph 5 mph 63.9% 0 in
07:24 66.7 °F 54.7 °F 29.9 in ENE 2.8 mph 5.2 mph 65.5% 0 in
07:29 65.8 °F 54.7 °F 29.9 in ESE 2 mph 5.8 mph 67.1% 0 in
07:34 65.3 °F 54.9 °F 29.9 in SE 2.7 mph 6 mph 68.7% 0 in
07:39 64.9 °F 54.7 °F 29.9 in SE 2.9 mph 5.2 mph 69.4% 0 in
07:44 64.8 °F 54.7 °F 29.9 in SSE 2.9 mph 5 mph 70% 0 in
07:49 64.6 °F 54.7 °F 29.9 in Sur 2.9 mph 5 mph 70.4% 0 in
07:54 64.8 °F 54.9 °F 29.9 in SO 2.5 mph 5.8 mph 70% 0 in
07:59 64.9 °F 54.7 °F 29.9 in OSO 2.4 mph 6 mph 69.3% 0 in
08:04 65.5 °F 54.7 °F 29.9 in SO 2.8 mph 5.8 mph 68% 0 in
08:09 66.2 °F 54.7 °F 29.9 in SSO 2.9 mph 6.9 mph 66.5% 0 in
08:14 66.7 °F 55 °F 29.9 in SSE 3.7 mph 7 mph 66% 0 in
08:19 66.7 °F 55.2 °F 29.9 in Sur 4 mph 7 mph 66.5% 0 in
08:24 66.7 °F 55.2 °F 29.9 in Sur 4.2 mph 7 mph 66.4% 0 in
08:29 67.1 °F 55.2 °F 29.9 in Sur 4.3 mph 9.2 mph 65.7% 0 in
08:34 67.6 °F 55.2 °F 29.9 in SSO 4.6 mph 9.2 mph 64.5% 0 in
08:39 68.2 °F 55.2 °F 29.9 in SSO 4.7 mph 9 mph 63.4% 0 in
08:44 68.5 °F 55.2 °F 29.9 in SSO 4.7 mph 7 mph 62.7% 0 in
08:49 68.7 °F 55.2 °F 29.9 in Sur 4.7 mph 7 mph 62.1% 0 in
08:54 69.1 °F 55.8 °F 29.9 in SSO 2.9 mph 5 mph 62.6% 0 in
08:59 69.4 °F 56.1 °F 29.9 in NO 2.4 mph 4.6 mph 62.7% 0 in
09:04 69.6 °F 56.1 °F 29.9 in ONO 2.1 mph 5 mph 62.2% 0 in
09:09 69.6 °F 56.1 °F 29.9 in ONO 2 mph 6.2 mph 62.3% 0 in
09:14 69.4 °F 56.1 °F 29.9 in Oeste 2.7 mph 6.2 mph 62.5% 0 in
09:19 69.4 °F 55.9 °F 29.9 in OSO 2.9 mph 6.9 mph 61.8% 0 in
09:24 69.8 °F 55.6 °F 29.9 in OSO 3.7 mph 7 mph 60.7% 0 in
09:29 70.3 °F 55.4 °F 29.9 in SO 4 mph 6 mph 59.2% 0 in
09:34 70.9 °F 55.4 °F 29.9 in SO 4 mph 6.2 mph 58% 0 in
09:39 71.4 °F 55.2 °F 29.9 in OSO 4 mph 6.4 mph 56.5% 0 in
09:44 72 °F 55.4 °F 29.9 in Oeste 3.3 mph 7 mph 55.9% 0 in
09:49 72.1 °F 55.2 °F 29.9 in OSO 3.1 mph 7 mph 55% 0 in
09:54 72.3 °F 55.2 °F 29.9 in SSO 3.8 mph 6 mph 55.1% 0 in
09:59 72.5 °F 56.8 °F 29.9 in SSE 4 mph 6 mph 57.6% 0 in
10:04 72.3 °F 57.2 °F 29.9 in Sur 3.7 mph 6 mph 59% 0 in
10:09 72.1 °F 57.4 °F 29.9 in SSE 3.6 mph 6 mph 59.8% 0 in
10:14 72 °F 57.2 °F 29.9 in SSO 3 mph 6.9 mph 59.9% 0 in
10:19 72 °F 55.9 °F 29.9 in OSO 2.9 mph 10.4 mph 57.1% 0 in
10:24 72.3 °F 55.8 °F 29.9 in OSO 4.7 mph 12.3 mph 56% 0 in
10:29 72.5 °F 55.9 °F 29.9 in OSO 5.2 mph 13 mph 55.9% 0 in
10:34 72.7 °F 56.1 °F 29.9 in OSO 6 mph 13 mph 56% 0 in
10:39 72.7 °F 56.1 °F 29.9 in OSO 6.2 mph 13 mph 56% 0 in
10:44 72.7 °F 56.3 °F 29.9 in OSO 6.7 mph 11.5 mph 56.3% 0 in
10:49 72.7 °F 56.7 °F 29.9 in SO 6.9 mph 12.5 mph 57.1% 0 in
10:54 72.7 °F 56.8 °F 29.9 in SO 7.3 mph 13 mph 57.4% 0 in
10:59 72.7 °F 56.8 °F 29.9 in SO 7.4 mph 15 mph 57.9% 0 in
11:04 72.5 °F 56.5 °F 29.9 in SO 8 mph 17.3 mph 56.9% 0 in
11:09 72.7 °F 56.7 °F 29.9 in SO 8.1 mph 17 mph 57% 0 in
11:14 72.7 °F 56.3 °F 29.9 in SO 7.7 mph 13 mph 56.4% 0 in
11:19 72.7 °F 56.1 °F 29.9 in SO 7.6 mph 13 mph 56% 0 in
11:24 72.9 °F 56.1 °F 29.9 in SO 7.6 mph 14 mph 55.8% 0 in
11:29 72.9 °F 55.6 °F 29.9 in OSO 7.6 mph 15 mph 54.6% 0 in
11:34 73 °F 55 °F 29.9 in OSO 8.9 mph 15 mph 53.2% 0 in
11:39 73.2 °F 55.2 °F 29.9 in OSO 9.2 mph 14 mph 53% 0 in
11:44 73.6 °F 55.2 °F 29.9 in OSO 8 mph 14 mph 52.6% 0 in
11:49 73.6 °F 55 °F 29.9 in OSO 7.6 mph 14 mph 52.5% 0 in
11:54 73.6 °F 55.4 °F 29.9 in OSO 7.5 mph 12 mph 53% 0 in
11:59 73.8 °F 55.6 °F 29.8 in OSO 7.4 mph 10.4 mph 53% 0 in
12:04 73.8 °F 55.4 °F 29.8 in SO 5.8 mph 10.4 mph 52.6% 0 in
12:09 73.8 °F 55.4 °F 29.8 in SO 5.4 mph 12.3 mph 52.5% 0 in
12:14 73.8 °F 55.4 °F 29.8 in SO 6.2 mph 13 mph 52.6% 0 in
12:19 73.8 °F 55.6 °F 29.8 in SO 6.4 mph 13 mph 53% 0 in
12:24 73.9 °F 55.8 °F 29.8 in SO 6.8 mph 12 mph 53% 0 in
12:29 74.1 °F 55.8 °F 29.8 in SO 6.9 mph 9.2 mph 53% 0 in
12:34 74.1 °F 55.9 °F 29.8 in SSO 6.1 mph 9.2 mph 53% 0 in
12:39 74.1 °F 55.9 °F 29.8 in SSO 5.9 mph 9.7 mph 53% 0 in
12:44 74.1 °F 55.9 °F 29.8 in SO 6.2 mph 10 mph 53.1% 0 in
12:49 74.3 °F 56.1 °F 29.8 in SSO 6.2 mph 10.4 mph 53.1% 0 in
12:54 74.7 °F 56.3 °F 29.8 in SSO 5.6 mph 10.7 mph 52.8% 0 in
12:59 75.2 °F 56.3 °F 29.8 in SO 5.4 mph 11 mph 52% 0 in
13:04 75.6 °F 56.3 °F 29.8 in SO 5.4 mph 12.7 mph 51.1% 0 in
13:09 75.7 °F 56.3 °F 29.8 in SSO 5.4 mph 15 mph 51% 0 in
13:14 75.9 °F 56.1 °F 29.8 in SSO 7 mph 15 mph 50.3% 0 in
13:19 76.1 °F 55.9 °F 29.8 in SSO 7.4 mph 12 mph 49.9% 0 in
13:24 76.5 °F 56.3 °F 29.8 in SSO 6.6 mph 12 mph 49.6% 0 in
13:29 76.8 °F 55.2 °F 29.8 in SSO 6.4 mph 17.3 mph 47.2% 0 in
13:34 76.8 °F 54.5 °F 29.8 in SSO 8 mph 17 mph 46% 0 in
13:39 77.2 °F 54.5 °F 29.8 in SSO 8.5 mph 16.3 mph 45.4% 0 in
13:44 77.2 °F 54.7 °F 29.8 in SSO 8.6 mph 16.1 mph 45.7% 0 in
13:49 77.2 °F 55.4 °F 29.8 in SSO 8.7 mph 16.1 mph 46.9% 0 in
13:54 77.2 °F 55.4 °F 29.8 in SSO 9.7 mph 16 mph 46.9% 0 in
13:59 77.4 °F 55 °F 29.8 in SSO 10 mph 15 mph 46.1% 0 in
14:04 77.5 °F 55.2 °F 29.8 in SO 9.3 mph 16.3 mph 46% 0 in
14:09 77.7 °F 55.2 °F 29.8 in SO 9.2 mph 16 mph 46% 0 in
14:14 78.1 °F 55 °F 29.8 in SO 8.3 mph 15 mph 45% 0 in
14:19 78.3 °F 54.9 °F 29.8 in OSO 8.1 mph 15 mph 44.4% 0 in
14:24 78.4 °F 54.7 °F 29.8 in OSO 7.1 mph 12 mph 44% 0 in
14:29 78.6 °F 54.7 °F 29.8 in SO 6.9 mph 12.7 mph 43.8% 0 in
14:34 79.2 °F 54.9 °F 29.8 in OSO 6.3 mph 13 mph 43.4% 0 in
14:39 79.3 °F 54.9 °F 29.8 in ONO 6.2 mph 10 mph 43% 0 in
14:44 79.3 °F 54.9 °F 29.8 in Oeste 5.6 mph 9.2 mph 42.9% 0 in
14:49 79.7 °F 54 °F 29.8 in SO 5.4 mph 21.3 mph 41.1% 0 in
14:54 80.4 °F 51.4 °F 29.8 in SO 7.5 mph 21 mph 36.7% 0 in
14:59 80.8 °F 50 °F 29.8 in OSO 8.1 mph 24.2 mph 34.3% 0 in
15:04 80.4 °F 49.5 °F 29.8 in SO 11.6 mph 24.6 mph 34% 0 in
15:09 80.8 °F 49.6 °F 29.8 in OSO 12.5 mph 25 mph 34% 0 in
15:14 80.8 °F 49.3 °F 29.8 in SO 10.7 mph 20.8 mph 33.4% 0 in
15:19 80.8 °F 48.6 °F 29.8 in SO 10.2 mph 25.3 mph 32.5% 0 in
15:24 81 °F 48.4 °F 29.8 in OSO 12.8 mph 25 mph 32% 0 in
15:29 81 °F 48.6 °F 29.7 in OSO 13.5 mph 26.5 mph 32.2% 0 in
15:34 81 °F 49.1 °F 29.7 in SO 12.6 mph 26 mph 33% 0 in
15:39 80.8 °F 49.1 °F 29.7 in OSO 12.3 mph 19 mph 33% 0 in
15:44 80.8 °F 48.9 °F 29.7 in OSO 11.4 mph 20.7 mph 33% 0 in
15:49 80.8 °F 48.9 °F 29.7 in OSO 11.2 mph 21 mph 33% 0 in
15:54 80.8 °F 48.9 °F 29.7 in SO 10.9 mph 20 mph 33% 0 in
15:59 80.8 °F 48.9 °F 29.7 in SO 10.7 mph 20 mph 33% 0 in
16:04 80.4 °F 48.7 °F 29.7 in SO 10.1 mph 17.3 mph 33% 0 in
16:09 80.4 °F 48.6 °F 29.7 in OSO 10 mph 17 mph 33% 0 in
16:14 80.4 °F 48.7 °F 29.7 in OSO 8.8 mph 15 mph 33% 0 in
16:19 80.4 °F 48.7 °F 29.7 in SO 8.5 mph 20.1 mph 33% 0 in
16:24 80.6 °F 48.7 °F 29.7 in SO 8.6 mph 21 mph 33% 0 in
16:29 80.4 °F 48.7 °F 29.7 in SO 8.7 mph 20 mph 33% 0 in
16:34 80.4 °F 48.7 °F 29.7 in SO 9.7 mph 17.5 mph 33% 0 in
16:39 80.4 °F 48.7 °F 29.7 in SO 10 mph 17 mph 33% 0 in
16:44 80.4 °F 48.7 °F 29.7 in SO 8.8 mph 15 mph 33% 0 in
16:49 80.2 °F 48 °F 29.7 in SO 8.5 mph 20.8 mph 32.3% 0 in
16:54 80.1 °F 47.7 °F 29.7 in SO 9.4 mph 21 mph 32% 0 in
16:59 80.1 °F 47.7 °F 29.7 in OSO 9.7 mph 18.4 mph 32.2% 0 in
17:04 79.9 °F 48.2 °F 29.7 in OSO 9.9 mph 18 mph 33% 0 in
17:09 79.9 °F 48.2 °F 29.7 in OSO 10 mph 16 mph 33% 0 in
17:14 79.9 °F 48.9 °F 29.7 in SO 8 mph 12 mph 33.9% 0 in
17:19 79.7 °F 48.7 °F 29.7 in SO 7.4 mph 18.4 mph 34% 0 in
17:24 79.3 °F 49.1 °F 29.7 in SO 7.4 mph 18 mph 34.9% 0 in
17:29 79 °F 48.9 °F 29.7 in OSO 7.4 mph 17.3 mph 35% 0 in
17:34 78.6 °F 48.7 °F 29.7 in OSO 8.8 mph 17 mph 35% 0 in
17:39 78.4 °F 48.6 °F 29.7 in OSO 9.2 mph 23.5 mph 35% 0 in
17:44 78.3 °F 48.4 °F 29.7 in OSO 10 mph 23 mph 35% 0 in
17:49 78.1 °F 48.2 °F 29.7 in SO 10.2 mph 21 mph 35% 0 in
17:54 77.9 °F 48.7 °F 29.7 in OSO 9.4 mph 15 mph 35.9% 0 in
17:59 77.5 °F 48.6 °F 29.7 in OSO 9.2 mph 16.1 mph 36% 0 in
18:04 77.4 °F 48.9 °F 29.7 in OSO 9.2 mph 16.3 mph 36.9% 0 in
18:09 77 °F 48.7 °F 29.7 in OSO 9.2 mph 18.5 mph 37% 0 in
18:14 76.6 °F 48.9 °F 29.7 in Oeste 10.4 mph 19 mph 37.6% 0 in
18:19 76.5 °F 48.9 °F 29.7 in Oeste 10.7 mph 18.4 mph 38% 0 in
18:24 75.9 °F 49.1 °F 29.7 in Oeste 9 mph 18 mph 38.7% 0 in
18:29 75.9 °F 49.3 °F 29.7 in Oeste 8.5 mph 16.1 mph 39% 0 in
18:34 75.9 °F 49.3 °F 29.7 in Oeste 8.2 mph 16 mph 39% 0 in
18:39 75.7 °F 49.1 °F 29.7 in Oeste 8.1 mph 15 mph 39% 0 in
18:44 75.6 °F 48.9 °F 29.7 in Oeste 6.6 mph 12 mph 39% 0 in
18:49 75.4 °F 49.5 °F 29.7 in Oeste 6.2 mph 8.1 mph 40% 0 in
18:54 75 °F 49.1 °F 29.7 in Oeste 5 mph 8 mph 40% 0 in
18:59 74.8 °F 49.3 °F 29.7 in Oeste 4.7 mph 8.1 mph 40.4% 0 in
19:04 74.7 °F 49.5 °F 29.7 in SO 4.2 mph 8 mph 41% 0 in
19:09 74.5 °F 49.3 °F 29.7 in Sur 4 mph 6 mph 41% 0 in
19:14 74.3 °F 49.8 °F 29.7 in Sur 3.7 mph 6.4 mph 42% 0 in
19:19 73.9 °F 50 °F 29.7 in Sur 3.6 mph 8.1 mph 43% 0 in
19:24 73.6 °F 49.6 °F 29.7 in SO 4.4 mph 8.5 mph 43% 0 in
19:29 73.4 °F 49.5 °F 29.7 in SO 4.7 mph 9.2 mph 43% 0 in
19:34 73.6 °F 49.6 °F 29.7 in SO 5.1 mph 9 mph 43% 0 in
19:39 73.8 °F 49.8 °F 29.7 in OSO 5.2 mph 9.2 mph 43% 0 in
19:44 73.8 °F 49.8 °F 29.7 in SO 5.3 mph 8 mph 43% 0 in
19:49 73.6 °F 49.6 °F 29.7 in SO 5.4 mph 8.1 mph 43% 0 in
19:54 73.6 °F 49.6 °F 29.7 in SO 5.3 mph 9.2 mph 43% 0 in
19:59 73.4 °F 50.2 °F 29.7 in SO 5.2 mph 9 mph 43.9% 0 in
20:04 73.2 °F 50 °F 29.7 in SSO 5.2 mph 9 mph 44% 0 in
20:09 73.2 °F 50 °F 29.7 in SSO 5.2 mph 8 mph 44% 0 in
20:14 73 °F 49.8 °F 29.7 in SO 4.5 mph 9.2 mph 44% 0 in
20:19 72.9 °F 49.6 °F 29.7 in SO 4.3 mph 9 mph 44% 0 in
20:24 72.9 °F 49.6 °F 29.7 in SSO 4.6 mph 8.1 mph 44% 0 in
20:29 72.7 °F 50.4 °F 29.7 in SSE 4.7 mph 8 mph 45.6% 0 in
20:34 72 °F 50.9 °F 29.7 in SE 3.5 mph 5.2 mph 47.6% 0 in
20:39 70.9 °F 50.7 °F 29.7 in SE 3.1 mph 8.1 mph 49% 0 in
20:44 70.2 °F 50.5 °F 29.7 in SE 3.5 mph 8.5 mph 50% 0 in
20:49 69.6 °F 50.2 °F 29.7 in SSE 3.6 mph 11.2 mph 50% 0 in
20:54 69.4 °F 50.2 °F 29.7 in SE 5.8 mph 13 mph 50% 0 in
20:59 70 °F 50 °F 29.7 in Sur 6.4 mph 13 mph 49.2% 0 in
21:04 70.3 °F 50 °F 29.7 in Sur 7.2 mph 13 mph 48.6% 0 in
21:09 70.5 °F 49.8 °F 29.7 in SSO 7.4 mph 10.7 mph 48% 0 in
21:14 71.1 °F 50.4 °F 29.7 in SSO 5.8 mph 11 mph 48% 0 in
21:19 71.2 °F 50.5 °F 29.7 in SSO 5.4 mph 10 mph 48% 0 in
21:24 71.2 °F 50.5 °F 29.7 in SSO 5.3 mph 9.2 mph 48% 0 in
21:29 71.4 °F 50.7 °F 29.7 in SSO 5.2 mph 9.2 mph 48% 0 in
21:34 71.6 °F 50.9 °F 29.7 in SSO 5.3 mph 8.5 mph 48% 0 in
21:39 71.4 °F 50.7 °F 29.7 in Sur 5.4 mph 9 mph 48% 0 in
21:44 71.4 °F 50.7 °F 29.7 in Sur 4.5 mph 9.2 mph 48% 0 in
21:49 71.4 °F 50.7 °F 29.7 in SSO 4.3 mph 12.7 mph 48% 0 in
21:54 71.6 °F 50.9 °F 29.7 in SSO 5.2 mph 13 mph 48% 0 in
21:59 71.8 °F 51.1 °F 29.7 in SSO 5.4 mph 10.4 mph 48% 0 in
22:04 71.8 °F 50.9 °F 29.7 in SSO 6.6 mph 10.4 mph 48% 0 in
22:09 71.4 °F 51.3 °F 29.7 in SSO 6.9 mph 9 mph 48.8% 0 in
22:14 71.1 °F 51.1 °F 29.7 in SO 5.2 mph 10.7 mph 49.3% 0 in
22:19 70.9 °F 51.3 °F 29.7 in SO 4.7 mph 11 mph 50% 0 in
22:24 70.5 °F 51.4 °F 29.7 in SO 5.1 mph 10.4 mph 50.8% 0 in
22:29 70.3 °F 51.4 °F 29.7 in SO 5.2 mph 10 mph 51.4% 0 in
22:34 70.2 °F 51.6 °F 29.7 in SO 5.7 mph 11.5 mph 52% 0 in
22:39 70.3 °F 51.8 °F 29.7 in SSO 5.9 mph 12 mph 52% 0 in
22:44 70.5 °F 51.6 °F 29.7 in SSO 6.2 mph 11.5 mph 51.1% 0 in
22:49 70.7 °F 51.6 °F 29.7 in SO 6.2 mph 12 mph 51% 0 in
22:54 70.5 °F 52 °F 29.7 in SO 6 mph 10 mph 51.9% 0 in
22:59 70.2 °F 52 °F 29.7 in SSO 5.9 mph 11.5 mph 52.4% 0 in
23:04 70 °F 52.2 °F 29.7 in SSO 5.5 mph 12 mph 53% 0 in
23:09 69.8 °F 52 °F 29.7 in Sur 5.4 mph 10.4 mph 53% 0 in
23:14 69.8 °F 52.2 °F 29.7 in Sur 5.4 mph 10.4 mph 53.4% 0 in
23:19 69.6 °F 52.2 °F 29.7 in Sur 5.4 mph 11.5 mph 54% 0 in
23:24 69.6 °F 52.2 °F 29.7 in SSO 5.8 mph 12 mph 54% 0 in
23:29 69.4 °F 52.3 °F 29.7 in SO 5.9 mph 9 mph 54.5% 0 in
23:34 69.4 °F 52.7 °F 29.7 in SSO 5.3 mph 10.4 mph 55% 0 in
23:39 69.6 °F 52.3 °F 29.7 in SSO 5.2 mph 10.4 mph 54.2% 0 in
23:44 70 °F 52.5 °F 29.7 in SSO 6 mph 14 mph 54% 0 in
23:49 70.2 °F 52.5 °F 29.7 in SSO 6.2 mph 14 mph 53.4% 0 in
23:54 70.3 °F 52.5 °F 29.7 in SSO 6.8 mph 12 mph 53% 0 in
23:59 70.5 °F 52.5 °F 29.7 in SSO 6.9 mph 11.5 mph 53% 0 in
Murcia-Puente Tocinos, España
Compliments of Weather Underground - 3.25 mb

La estación de MeteoMurcia.com, publica sus datos en los siguientes proyectos:

Weather Underground PWS IMURCIAP2 Meteoclimatic www.awekas.at

W3Counter
Web Analytics